Time;durP1;ratioP1;P1;durP2;ratioP2;P2;SDS_P1;SDS_P2;PMS_P1;PMS_P2;Temp;Humidity;BMP_temperature;BMP_pressure;BME280_temperature;BME280_humidity;BME280_pressure;Samples;Min_cycle;Max_cycle;Signal;HPM_P1;HPM_P2
2021/12/15 00:00:38;;;;;;;42.92;33.78;;;;;;;;;;5033428;28;20451;-57
2021/12/15 00:03:06;;;;;;;41.55;33.05;;;;;;;;;;5033700;28;20045;-57
2021/12/15 00:05:33;;;;;;;50.30;34.28;;;;;;;;;;5033544;28;20365;-57
2021/12/15 00:08:02;;;;;;;43.72;32.95;;;;;;;;;;5033435;28;20049;-57
2021/12/15 00:10:30;;;;;;;46.45;35.53;;;;;;;;;;5033443;28;20407;-56
2021/12/15 00:12:57;;;;;;;54.05;36.72;;;;;;;;;;5033256;28;20049;-57
2021/12/15 00:15:27;;;;;;;47.97;34.35;;;;;;;;;;5033656;28;20045;-57
2021/12/15 00:17:55;;;;;;;46.35;34.20;;;;;;;;;;5033042;28;20045;-57
2021/12/15 00:20:22;;;;;;;45.75;34.58;;;;;;;;;;5033297;28;20049;-57
2021/12/15 00:22:52;;;;;;;49.55;35.05;;;;;;;;;;5033068;28;20492;-57
2021/12/15 00:25:22;;;;;;;43.30;33.53;;;;;;;;;;5033592;28;20064;-57
2021/12/15 00:27:49;;;;;;;47.47;32.72;;;;;;;;;;5032765;28;20049;-57
2021/12/15 00:30:17;;;;;;;39.53;30.98;;;;;;;;;;5033312;28;20041;-57
2021/12/15 00:32:44;;;;;;;41.03;30.20;;;;;;;;;;5032926;28;20050;-57
2021/12/15 00:35:12;;;;;;;42.83;31.73;;;;;;;;;;5015230;28;20389;-57
2021/12/15 00:37:38;;;;;;;41.25;30.63;;;;;;;;;;5033268;28;20408;-57
2021/12/15 00:40:09;;;;;;;46.40;33.75;;;;;;;;;;5033026;28;20078;-57
2021/12/15 00:42:36;;;;;;;44.95;31.35;;;;;;;;;;5033358;28;20069;-57
2021/12/15 00:45:04;;;;;;;40.78;31.00;;;;;;;;;;5032915;28;20037;-58
2021/12/15 00:47:31;;;;;;;45.63;30.50;;;;;;;;;;5032355;28;20496;-57
2021/12/15 00:50:06;;;;;;;43.67;31.88;;;;;;;;;;5032834;28;20041;-57
2021/12/15 00:52:33;;;;;;;37.55;29.48;;;;;;;;;;5031961;28;20119;-57
2021/12/15 00:55:01;;;;;;;36.80;26.48;;;;;;;;;;5032701;28;20049;-57
2021/12/15 00:57:27;;;;;;;36.25;30.45;;;;;;;;;;5031963;28;20052;-57
2021/12/15 00:59:56;;;;;;;41.55;30.90;;;;;;;;;;5014917;28;20499;-54
2021/12/15 01:02:24;;;;;;;42.75;31.55;;;;;;;;;;5015381;28;20201;-57
2021/12/15 01:04:52;;;;;;;36.25;29.75;;;;;;;;;;5014820;28;20045;-58
2021/12/15 01:07:19;;;;;;;32.08;28.02;;;;;;;;;;5032969;28;20072;-57
2021/12/15 01:09:55;;;;;;;36.03;28.73;;;;;;;;;;5033317;28;20049;-58
2021/12/15 01:20:52;;;;;;;44.53;30.48;;;;;;;;;;5001228;28;20049;-58
2021/12/15 01:23:26;;;;;;;33.70;27.83;;;;;;;;;;5032851;28;20064;-58
2021/12/15 01:26:11;;;;;;;37.30;30.13;;;;;;;;;;5032950;28;20400;-59
2021/12/15 01:28:38;;;;;;;42.72;31.75;;;;;;;;;;5032309;28;20052;-57
2021/12/15 01:31:06;;;;;;;43.65;33.35;;;;;;;;;;5032720;28;20046;-57
2021/12/15 01:33:34;;;;;;;44.28;32.00;;;;;;;;;;5032696;28;20048;-59
2021/12/15 01:36:03;;;;;;;42.70;32.20;;;;;;;;;;5032766;28;20041;-58
2021/12/15 01:38:33;;;;;;;37.28;31.30;;;;;;;;;;5032348;28;20075;-58
2021/12/15 01:41:01;;;;;;;45.30;32.78;;;;;;;;;;5033043;28;20041;-58
2021/12/15 01:46:52;;;;;;;48.70;30.95;;;;;;;;;;5032237;28;20049;-57
2021/12/15 01:46:56;;;;;;;41.40;31.65;;;;;;;;;;5032399;28;20037;-59
2021/12/15 01:49:29;;;;;;;41.20;31.00;;;;;;;;;;5014604;28;20046;-59
2021/12/15 01:51:58;;;;;;;39.92;31.35;;;;;;;;;;5031091;28;20045;-55
2021/12/15 01:54:27;;;;;;;33.75;27.63;;;;;;;;;;5031973;28;20045;-56
2021/12/15 01:56:54;;;;;;;40.60;29.60;;;;;;;;;;5032496;28;20042;-56
2021/12/15 01:59:23;;;;;;;40.67;29.15;;;;;;;;;;5018323;28;20400;-56
2021/12/15 02:01:50;;;;;;;34.92;27.45;;;;;;;;;;5018575;28;20048;-56
2021/12/15 02:04:19;;;;;;;30.90;25.23;;;;;;;;;;5036358;28;20043;-55
2021/12/15 02:06:47;;;;;;;31.20;25.23;;;;;;;;;;5036154;28;20046;-56
2021/12/15 02:09:24;;;;;;;27.45;23.80;;;;;;;;;;5036387;28;20038;-55
2021/12/15 02:11:51;;;;;;;34.03;25.75;;;;;;;;;;5036160;28;20086;-56
2021/12/15 02:14:18;;;;;;;42.35;28.30;;;;;;;;;;5036316;28;20421;-56
2021/12/15 02:16:45;;;;;;;34.53;27.88;;;;;;;;;;5035925;28;20107;-55
2021/12/15 02:19:12;;;;;;;37.30;28.13;;;;;;;;;;5018257;28;20045;-56
2021/12/15 02:21:39;;;;;;;35.25;26.80;;;;;;;;;;5017805;28;20037;-56
2021/12/15 02:24:06;;;;;;;33.45;24.42;;;;;;;;;;5033910;28;20531;-56
2021/12/15 02:26:38;;;;;;;33.15;25.08;;;;;;;;;;5017567;28;20044;-53
2021/12/15 02:29:11;;;;;;;32.55;27.23;;;;;;;;;;5035031;28;20072;-55
2021/12/15 02:37:19;;;;;;;37.80;26.33;;;;;;;;;;5018075;28;20047;-56
2021/12/15 02:40:03;;;;;;;41.67;31.80;;;;;;;;;;5018029;28;20134;-54
2021/12/15 02:42:34;;;;;;;37.27;29.53;;;;;;;;;;5017711;28;20124;-56
2021/12/15 02:45:04;;;;;;;37.60;31.30;;;;;;;;;;5035645;28;20291;-56
2021/12/15 02:47:31;;;;;;;59.63;42.08;;;;;;;;;;5035995;28;20053;-57
2021/12/15 02:50:00;;;;;;;48.15;35.45;;;;;;;;;;5035317;28;20042;-56
2021/12/15 02:52:27;;;;;;;42.08;34.00;;;;;;;;;;5035911;28;20395;-55
2021/12/15 02:54:54;;;;;;;40.05;31.58;;;;;;;;;;5035225;28;20120;-57
2021/12/15 02:57:21;;;;;;;40.47;32.92;;;;;;;;;;5035600;28;20479;-56
2021/12/15 03:05:01;;;;;;;48.38;33.80;;;;;;;;;;5035350;28;20076;-57
2021/12/15 03:15:35;;;;;;;45.72;35.70;;;;;;;;;;5035215;28;20455;-57
2021/12/15 03:18:14;;;;;;;46.63;35.10;;;;;;;;;;5035071;28;20046;-57
2021/12/15 03:20:53;;;;;;;46.33;35.33;;;;;;;;;;5034693;28;20048;-57
2021/12/15 03:23:41;;;;;;;47.50;35.20;;;;;;;;;;5035257;28;20053;-57
2021/12/15 03:26:10;;;;;;;50.40;36.42;;;;;;;;;;5034740;28;20061;-56
2021/12/15 03:39:33;;;;;;;42.97;34.97;;;;;;;;;;5031312;28;20038;-57
2021/12/15 03:42:05;;;;;;;48.78;36.70;;;;;;;;;;5034660;28;20037;-57
2021/12/15 03:44:35;;;;;;;49.72;38.47;;;;;;;;;;5034705;28;20052;-58
2021/12/15 03:47:05;;;;;;;53.65;38.15;;;;;;;;;;5034892;28;20050;-57
2021/12/15 03:49:32;;;;;;;46.03;36.20;;;;;;;;;;5034575;28;20045;-57
2021/12/15 03:51:59;;;;;;;48.97;37.95;;;;;;;;;;5034740;28;20042;-57
2021/12/15 03:54:25;;;;;;;44.33;36.20;;;;;;;;;;5034302;28;20092;-57
2021/12/15 03:56:54;;;;;;;52.72;37.55;;;;;;;;;;5034265;28;20045;-57
2021/12/15 03:59:23;;;;;;;49.08;38.20;;;;;;;;;;5034075;28;20148;-58
2021/12/15 04:01:51;;;;;;;51.67;37.33;;;;;;;;;;5034175;28;20041;-58
2021/12/15 04:04:18;;;;;;;53.75;38.42;;;;;;;;;;5030902;28;20691;-57
2021/12/15 04:06:45;;;;;;;50.28;37.78;;;;;;;;;;5029111;28;20554;-57
2021/12/15 04:09:13;;;;;;;53.92;42.30;;;;;;;;;;5033152;28;20046;-58
2021/12/15 04:11:41;;;;;;;50.25;38.35;;;;;;;;;;5033749;28;20048;-58
2021/12/15 04:14:11;;;;;;;49.05;38.65;;;;;;;;;;5033788;28;20041;-57
2021/12/15 04:19:10;;;;;;;50.97;38.30;;;;;;;;;;5033778;28;20056;-57
2021/12/15 04:21:38;;;;;;;46.88;36.83;;;;;;;;;;5032083;28;20037;-58
2021/12/15 04:24:05;;;;;;;57.03;42.65;;;;;;;;;;5033837;28;20095;-57
2021/12/15 04:26:32;;;;;;;53.83;42.65;;;;;;;;;;5033486;28;20044;-57
2021/12/15 04:29:00;;;;;;;49.58;40.47;;;;;;;;;;5033686;28;20049;-57
2021/12/15 04:31:31;;;;;;;55.38;41.85;;;;;;;;;;5033306;28;20450;-57
2021/12/15 04:34:05;;;;;;;57.78;40.03;;;;;;;;;;5033690;28;20106;-57
2021/12/15 04:36:35;;;;;;;53.28;41.15;;;;;;;;;;5033202;28;20046;-59
2021/12/15 04:39:05;;;;;;;53.88;41.13;;;;;;;;;;5033346;28;20053;-57
2021/12/15 04:41:32;;;;;;;55.72;41.95;;;;;;;;;;5033344;28;20048;-58
2021/12/15 04:44:10;;;;;;;53.92;42.80;;;;;;;;;;5033559;28;20052;-57
2021/12/15 04:46:41;;;;;;;54.85;43.88;;;;;;;;;;5027800;28;20056;-58
2021/12/15 04:49:11;;;;;;;55.35;43.75;;;;;;;;;;5032914;28;20046;-58
2021/12/15 04:51:38;;;;;;;57.92;46.63;;;;;;;;;;5032937;28;20487;-57
2021/12/15 04:54:05;;;;;;;62.70;49.10;;;;;;;;;;5033080;28;20557;-57
2021/12/15 04:56:32;;;;;;;58.08;45.13;;;;;;;;;;5033268;28;20045;-58
2021/12/15 04:58:59;;;;;;;63.17;45.70;;;;;;;;;;5032867;28;20107;-56
2021/12/15 05:01:26;;;;;;;57.60;44.83;;;;;;;;;;5033207;28;20045;-57
2021/12/15 05:03:54;;;;;;;58.03;44.35;;;;;;;;;;5032978;28;20048;-56
2021/12/15 05:06:22;;;;;;;49.55;40.88;;;;;;;;;;5033249;28;20049;-58
2021/12/15 05:08:50;;;;;;;47.15;38.25;;;;;;;;;;5032895;28;20372;-57
2021/12/15 05:11:18;;;;;;;50.42;38.85;;;;;;;;;;5033018;28;20045;-57
2021/12/15 05:13:45;;;;;;;46.63;36.72;;;;;;;;;;5032783;28;20041;-58
2021/12/15 05:16:12;;;;;;;63.63;44.72;;;;;;;;;;5032485;28;20049;-58
2021/12/15 05:18:39;;;;;;;44.60;34.63;;;;;;;;;;5032460;28;20495;-57
2021/12/15 05:21:07;;;;;;;44.05;37.97;;;;;;;;;;5032651;28;20396;-57
2021/12/15 05:23:44;;;;;;;46.05;35.60;;;;;;;;;;5033207;28;20051;-57
2021/12/15 05:26:11;;;;;;;49.10;35.13;;;;;;;;;;5032421;28;20041;-57
2021/12/15 05:28:39;;;;;;;50.25;35.60;;;;;;;;;;5032315;28;20603;-57
2021/12/15 05:31:06;;;;;;;48.65;35.30;;;;;;;;;;5032445;28;20045;-57
2021/12/15 05:33:33;;;;;;;49.67;36.53;;;;;;;;;;5032721;28;20049;-57
2021/12/15 05:36:00;;;;;;;44.10;35.70;;;;;;;;;;5032299;28;20099;-58
2021/12/15 05:38:27;;;;;;;47.85;36.83;;;;;;;;;;5032744;28;20056;-57
2021/12/15 05:40:56;;;;;;;45.83;37.30;;;;;;;;;;5032725;28;20099;-57
2021/12/15 05:43:24;;;;;;;40.70;32.53;;;;;;;;;;5032194;28;20040;-58
2021/12/15 05:45:52;;;;;;;62.03;46.78;;;;;;;;;;5032411;28;20091;-57
2021/12/15 05:48:19;;;;;;;48.85;38.00;;;;;;;;;;5032122;28;20403;-57
2021/12/15 05:50:49;;;;;;;47.03;35.70;;;;;;;;;;5032441;28;20045;-57
2021/12/15 05:53:16;;;;;;;44.33;33.33;;;;;;;;;;5032157;28;20052;-57
2021/12/15 05:55:44;;;;;;;42.65;34.10;;;;;;;;;;5032174;28;20038;-57
2021/12/15 05:58:11;;;;;;;46.05;34.40;;;;;;;;;;5032277;28;20050;-57
2021/12/15 06:00:40;;;;;;;46.35;37.33;;;;;;;;;;5032217;28;20037;-58
2021/12/15 06:03:07;;;;;;;40.83;33.63;;;;;;;;;;5032542;28;20049;-57
2021/12/15 06:05:36;;;;;;;40.45;33.70;;;;;;;;;;5032294;28;20053;-58
2021/12/15 06:08:04;;;;;;;52.53;44.60;;;;;;;;;;5032180;28;20050;-58
2021/12/15 06:10:33;;;;;;;55.03;41.65;;;;;;;;;;5032133;28;20431;-58
2021/12/15 06:13:02;;;;;;;49.67;39.30;;;;;;;;;;5032145;28;20042;-54
2021/12/15 06:15:29;;;;;;;46.53;38.20;;;;;;;;;;5031821;28;20045;-56
2021/12/15 06:18:03;;;;;;;46.60;36.08;;;;;;;;;;5032624;28;20059;-54
2021/12/15 06:20:30;;;;;;;48.42;34.08;;;;;;;;;;5014599;28;20042;-55
2021/12/15 06:23:00;;;;;;;40.00;33.33;;;;;;;;;;5032313;28;20056;-55
2021/12/15 06:25:28;;;;;;;39.38;31.30;;;;;;;;;;5031924;28;20049;-53
2021/12/15 06:27:55;;;;;;;37.67;29.08;;;;;;;;;;5031792;28;20054;-55
2021/12/15 06:30:22;;;;;;;43.53;33.30;;;;;;;;;;5031738;28;20043;-56
2021/12/15 06:32:50;;;;;;;43.72;34.22;;;;;;;;;;5032138;28;20042;-56
2021/12/15 06:35:17;;;;;;;41.88;35.00;;;;;;;;;;5031831;28;20499;-55
2021/12/15 06:37:44;;;;;;;38.60;31.23;;;;;;;;;;5031580;28;20499;-55
2021/12/15 06:40:11;;;;;;;46.35;34.05;;;;;;;;;;5030258;28;20049;-57
2021/12/15 06:42:40;;;;;;;43.83;32.95;;;;;;;;;;5029948;28;20095;-57
2021/12/15 06:45:11;;;;;;;45.67;34.67;;;;;;;;;;5028780;28;20046;-57
2021/12/15 06:58:40;;;;;;;55.47;36.00;;;;;;;;;;5031824;28;20048;-57
2021/12/15 07:01:07;;;;;;;57.22;39.95;;;;;;;;;;5034685;28;20041;-57
2021/12/15 07:03:35;;;;;;;49.25;37.88;;;;;;;;;;5033811;28;20045;-57
2021/12/15 07:06:03;;;;;;;49.20;37.67;;;;;;;;;;5033560;28;20048;-59
2021/12/15 07:08:30;;;;;;;49.53;37.65;;;;;;;;;;5034004;28;20053;-58
2021/12/15 07:10:59;;;;;;;52.33;38.45;;;;;;;;;;5033820;28;20063;-58
2021/12/15 07:13:26;;;;;;;46.63;35.72;;;;;;;;;;5033862;28;20053;-58
2021/12/15 07:16:00;;;;;;;53.08;39.45;;;;;;;;;;5034135;28;20037;-57
2021/12/15 07:18:49;;;;;;;63.10;44.20;;;;;;;;;;5034204;28;20073;-58
2021/12/15 07:21:22;;;;;;;56.03;42.53;;;;;;;;;;5034265;28;20396;-61
2021/12/15 07:23:52;;;;;;;59.67;44.15;;;;;;;;;;5033855;28;20045;-57
2021/12/15 07:26:20;;;;;;;54.95;42.83;;;;;;;;;;5032386;28;20126;-54
2021/12/15 07:28:47;;;;;;;52.90;40.67;;;;;;;;;;5014198;28;20045;-57
2021/12/15 07:31:16;;;;;;;51.55;40.10;;;;;;;;;;5013061;28;20362;-58
2021/12/15 07:33:43;;;;;;;58.55;42.15;;;;;;;;;;5014333;28;20045;-58
2021/12/15 07:36:10;;;;;;;55.22;39.35;;;;;;;;;;5014197;28;20038;-57
2021/12/15 07:38:41;;;;;;;53.35;41.05;;;;;;;;;;5014790;28;20092;-58
2021/12/15 07:41:24;;;;;;;53.75;40.88;;;;;;;;;;5014370;28;20044;-58
2021/12/15 07:43:52;;;;;;;49.25;37.55;;;;;;;;;;5014670;28;20049;-58
2021/12/15 07:46:39;;;;;;;50.53;40.08;;;;;;;;;;5014231;28;20088;-57
2021/12/15 07:49:06;;;;;;;48.22;35.85;;;;;;;;;;5014391;28;20574;-58
2021/12/15 07:51:33;;;;;;;44.45;35.95;;;;;;;;;;5014432;28;20389;-57
2021/12/15 07:54:00;;;;;;;49.72;39.38;;;;;;;;;;5014751;28;20394;-58
2021/12/15 07:56:27;;;;;;;47.80;35.30;;;;;;;;;;5013910;28;20041;-58
2021/12/15 07:58:53;;;;;;;44.40;35.25;;;;;;;;;;5014195;28;20048;-58
2021/12/15 08:01:22;;;;;;;48.60;34.63;;;;;;;;;;5014291;28;20092;-58
2021/12/15 08:03:54;;;;;;;47.40;36.50;;;;;;;;;;5013941;28;20554;-58
2021/12/15 08:06:26;;;;;;;51.97;38.45;;;;;;;;;;5014434;28;20057;-58
2021/12/15 08:08:54;;;;;;;47.30;37.83;;;;;;;;;;5013975;28;20046;-58
2021/12/15 08:11:21;;;;;;;50.47;39.35;;;;;;;;;;5014156;28;20392;-58
2021/12/15 08:13:48;;;;;;;54.08;40.42;;;;;;;;;;5013987;28;20046;-58
2021/12/15 08:16:16;;;;;;;46.25;37.30;;;;;;;;;;5013808;28;20042;-58
2021/12/15 08:18:43;;;;;;;42.63;33.78;;;;;;;;;;5014223;28;20057;-57
2021/12/15 08:21:10;;;;;;;45.38;33.30;;;;;;;;;;5013776;28;20117;-57
2021/12/15 08:23:37;;;;;;;43.42;33.10;;;;;;;;;;5014049;28;20507;-58
2021/12/15 08:26:05;;;;;;;37.17;29.73;;;;;;;;;;5013539;28;20056;-58
2021/12/15 08:28:32;;;;;;;48.47;34.30;;;;;;;;;;5013646;28;20527;-63
2021/12/15 08:31:00;;;;;;;43.85;35.28;;;;;;;;;;5013672;28;20554;-59
2021/12/15 08:33:27;;;;;;;43.30;33.60;;;;;;;;;;5013597;28;20518;-58
2021/12/15 08:36:01;;;;;;;61.72;49.60;;;;;;;;;;5013408;28;20564;-57
2021/12/15 08:38:30;;;;;;;58.80;47.17;;;;;;;;;;5013941;28;20392;-58
2021/12/15 08:40:57;;;;;;;48.75;38.65;;;;;;;;;;5013394;28;20042;-57
2021/12/15 08:43:24;;;;;;;45.22;33.28;;;;;;;;;;5013751;28;20042;-57
2021/12/15 08:45:57;;;;;;;41.58;34.78;;;;;;;;;;5013644;28;20046;-57
2021/12/15 08:48:24;;;;;;;39.17;31.73;;;;;;;;;;5013450;28;20046;-58
2021/12/15 08:50:51;;;;;;;43.33;34.17;;;;;;;;;;5013565;28;20096;-58
2021/12/15 08:53:19;;;;;;;43.60;32.80;;;;;;;;;;5013167;28;20038;-58
2021/12/15 08:55:47;;;;;;;43.00;32.40;;;;;;;;;;5013829;28;20236;-58
2021/12/15 08:58:17;;;;;;;40.35;31.63;;;;;;;;;;5013386;28;20046;-58
2021/12/15 09:00:50;;;;;;;37.45;29.60;;;;;;;;;;5013882;28;20053;-58
2021/12/15 09:03:20;;;;;;;36.28;28.05;;;;;;;;;;5013138;28;20042;-58
2021/12/15 09:05:49;;;;;;;36.10;27.67;;;;;;;;;;5013310;28;20373;-58
2021/12/15 09:08:16;;;;;;;35.05;28.95;;;;;;;;;;5012389;28;20088;-58
2021/12/15 09:10:45;;;;;;;34.40;27.02;;;;;;;;;;5013062;28;20511;-58
2021/12/15 09:13:13;;;;;;;31.70;26.33;;;;;;;;;;5013453;28;20054;-58
2021/12/15 09:15:41;;;;;;;30.70;25.40;;;;;;;;;;5013562;28;20389;-58
2021/12/15 09:18:10;;;;;;;32.85;27.55;;;;;;;;;;5013396;28;20045;-58
2021/12/15 09:20:40;;;;;;;34.75;29.10;;;;;;;;;;5013142;28;20053;-58
2021/12/15 09:23:09;;;;;;;34.25;28.05;;;;;;;;;;5013091;28;20512;-58
2021/12/15 09:25:37;;;;;;;35.50;24.88;;;;;;;;;;5012747;28;20046;-58
2021/12/15 09:28:04;;;;;;;37.35;28.85;;;;;;;;;;5012986;28;20042;-58
2021/12/15 09:30:32;;;;;;;35.53;29.42;;;;;;;;;;5012582;28;20092;-58
2021/12/15 09:32:59;;;;;;;36.55;30.65;;;;;;;;;;5013148;28;20096;-58
2021/12/15 09:35:31;;;;;;;32.88;27.15;;;;;;;;;;5012875;28;20053;-58
2021/12/15 09:37:59;;;;;;;37.10;29.00;;;;;;;;;;5013286;28;20459;-57
2021/12/15 09:40:26;;;;;;;39.50;28.67;;;;;;;;;;5012842;28;20038;-58
2021/12/15 09:42:53;;;;;;;35.78;29.38;;;;;;;;;;5013010;28;20042;-58
2021/12/15 09:45:37;;;;;;;36.55;28.67;;;;;;;;;;5013141;28;20050;-58
2021/12/15 10:17:21;;;;;;;32.55;25.20;;;;;;;;;;5012553;28;20044;-57
2021/12/15 10:18:12;;;;;;;34.10;25.00;;;;;;;;;;5012885;28;20133;-57
2021/12/15 10:20:40;;;;;;;33.47;28.02;;;;;;;;;;5015589;28;20046;-57
2021/12/15 10:23:13;;;;;;;34.88;26.48;;;;;;;;;;5016543;28;20049;-57
2021/12/15 10:25:45;;;;;;;35.95;25.92;;;;;;;;;;5016433;28;20480;-58
2021/12/15 10:28:16;;;;;;;33.75;26.00;;;;;;;;;;5016425;28;20100;-57
2021/12/15 10:30:47;;;;;;;34.08;28.17;;;;;;;;;;5016278;28;20049;-57
2021/12/15 10:33:24;;;;;;;36.92;26.38;;;;;;;;;;5016288;28;20121;-56
2021/12/15 10:35:57;;;;;;;29.75;25.00;;;;;;;;;;5015714;28;20092;-58
2021/12/15 10:38:46;;;;;;;28.80;25.55;;;;;;;;;;5016430;28;20065;-59
2021/12/15 10:41:21;;;;;;;32.80;24.95;;;;;;;;;;5015633;28;20042;-58
2021/12/15 10:43:58;;;;;;;34.28;23.73;;;;;;;;;;5015692;28;20046;-58
2021/12/15 10:47:06;;;;;;;31.77;25.92;;;;;;;;;;5015702;28;20056;-58
2021/12/15 10:49:39;;;;;;;36.50;24.65;;;;;;;;;;5015578;28;20045;-57
2021/12/15 10:52:09;;;;;;;36.60;23.83;;;;;;;;;;5015529;28;20042;-55
2021/12/15 10:54:46;;;;;;;29.17;23.92;;;;;;;;;;5015941;28;20053;-58
2021/12/15 10:57:19;;;;;;;35.47;24.95;;;;;;;;;;5015305;28;20465;-58
2021/12/15 10:59:50;;;;;;;32.38;25.92;;;;;;;;;;5016021;28;20433;-58
2021/12/15 11:02:36;;;;;;;36.40;24.38;;;;;;;;;;5015465;28;20046;-56
2021/12/15 11:05:16;;;;;;;37.17;25.58;;;;;;;;;;5015676;28;20053;-57
2021/12/15 11:07:54;;;;;;;36.60;25.45;;;;;;;;;;5015436;28;20046;-58
2021/12/15 11:10:27;;;;;;;34.08;25.50;;;;;;;;;;5015484;28;20054;-56
2021/12/15 11:13:13;;;;;;;31.88;24.05;;;;;;;;;;5015445;28;20038;-58
2021/12/15 11:15:46;;;;;;;30.45;24.63;;;;;;;;;;5015542;28;20555;-58
2021/12/15 11:18:17;;;;;;;32.05;25.08;;;;;;;;;;5015464;28;20042;-58
2021/12/15 11:20:55;;;;;;;32.88;25.55;;;;;;;;;;5015736;28;20053;-59
2021/12/15 11:23:25;;;;;;;34.92;26.50;;;;;;;;;;5015556;28;20407;-59
2021/12/15 11:25:59;;;;;;;31.65;25.42;;;;;;;;;;5015024;28;20412;-60
2021/12/15 11:28:31;;;;;;;35.45;27.08;;;;;;;;;;5015083;28;20057;-57
2021/12/15 11:31:07;;;;;;;38.60;26.23;;;;;;;;;;5014713;28;20054;-58
2021/12/15 11:33:38;;;;;;;34.40;28.15;;;;;;;;;;5015390;28;20042;-58
2021/12/15 11:36:11;;;;;;;33.75;26.60;;;;;;;;;;5015133;28;20065;-58
2021/12/15 11:38:39;;;;;;;34.95;28.60;;;;;;;;;;5015260;28;20080;-58
2021/12/15 11:41:06;;;;;;;35.47;28.17;;;;;;;;;;5014618;28;20529;-58
2021/12/15 11:43:58;;;;;;;34.17;27.88;;;;;;;;;;5014826;28;20046;-58
2021/12/15 11:46:27;;;;;;;32.85;28.67;;;;;;;;;;5014412;28;20493;-58
2021/12/15 11:49:29;;;;;;;37.08;28.30;;;;;;;;;;5014763;28;20512;-58
2021/12/15 11:51:59;;;;;;;36.03;27.55;;;;;;;;;;5011960;28;20074;-57
2021/12/15 11:54:34;;;;;;;35.20;29.90;;;;;;;;;;5015024;28;20041;-57
2021/12/15 11:57:07;;;;;;;39.40;28.70;;;;;;;;;;5014747;28;20045;-58
2021/12/15 11:59:44;;;;;;;38.65;30.77;;;;;;;;;;5014806;28;20501;-53
2021/12/15 12:02:28;;;;;;;37.33;29.15;;;;;;;;;;5014216;28;20501;-56
2021/12/15 12:05:04;;;;;;;33.55;28.23;;;;;;;;;;5014697;28;20124;-57
2021/12/15 12:07:34;;;;;;;37.70;28.30;;;;;;;;;;5014538;28;20467;-58
2021/12/15 12:10:13;;;;;;;31.58;27.58;;;;;;;;;;5014679;28;20046;-57
2021/12/15 12:12:50;;;;;;;40.38;28.45;;;;;;;;;;5014306;28;20400;-55
2021/12/15 12:15:26;;;;;;;36.80;28.98;;;;;;;;;;5014639;28;20053;-56
2021/12/15 12:17:57;;;;;;;37.10;28.58;;;;;;;;;;5013872;28;20061;-57
2021/12/15 12:20:32;;;;;;;37.05;28.33;;;;;;;;;;5014487;28;20121;-58
2021/12/15 12:23:01;;;;;;;30.85;26.17;;;;;;;;;;5014364;28;20045;-56
2021/12/15 12:25:35;;;;;;;36.10;31.48;;;;;;;;;;5013604;28;20098;-57
2021/12/15 12:28:04;;;;;;;36.80;27.92;;;;;;;;;;5014085;28;20436;-56
2021/12/15 12:30:37;;;;;;;36.78;29.20;;;;;;;;;;5013943;28;20050;-55
2021/12/15 12:33:08;;;;;;;37.25;27.13;;;;;;;;;;5014287;28;20485;-56
2021/12/15 12:35:46;;;;;;;36.50;28.83;;;;;;;;;;5014017;28;20050;-58
2021/12/15 12:38:19;;;;;;;36.40;28.40;;;;;;;;;;5013731;28;20046;-57
2021/12/15 12:40:49;;;;;;;33.72;26.98;;;;;;;;;;5013835;28;20050;-58
2021/12/15 12:43:19;;;;;;;33.92;29.27;;;;;;;;;;5013063;28;20100;-57
2021/12/15 12:46:05;;;;;;;35.25;29.85;;;;;;;;;;5013320;28;20444;-56
2021/12/15 12:48:48;;;;;;;35.58;31.02;;;;;;;;;;5014084;28;20038;-57
2021/12/15 12:59:42;;;;;;;36.92;31.75;;;;;;;;;;5013388;28;20100;-58
2021/12/15 13:02:26;;;;;;;37.83;31.77;;;;;;;;;;5013071;28;20041;-58
2021/12/15 13:04:57;;;;;;;37.95;31.73;;;;;;;;;;5013648;28;20440;-56
2021/12/15 13:07:47;;;;;;;36.40;30.52;;;;;;;;;;5012919;28;20048;-58
2021/12/15 13:10:14;;;;;;;39.03;31.00;;;;;;;;;;5013301;28;20042;-58
2021/12/15 13:12:47;;;;;;;38.35;31.27;;;;;;;;;;5013218;28;20440;-58
2021/12/15 13:15:19;;;;;;;35.88;29.77;;;;;;;;;;5013512;28;20049;-58
2021/12/15 13:18:00;;;;;;;35.97;29.70;;;;;;;;;;5013004;28;20041;-58
2021/12/15 13:20:30;;;;;;;38.40;28.92;;;;;;;;;;5013156;28;20105;-58
2021/12/15 13:28:49;;;;;;;43.08;30.25;;;;;;;;;;5012444;28;20488;-57
2021/12/15 13:31:24;;;;;;;46.80;36.33;;;;;;;;;;5013209;28;20053;-56
2021/12/15 13:33:54;;;;;;;38.05;33.40;;;;;;;;;;5020253;28;20075;-57
2021/12/15 13:36:30;;;;;;;39.47;30.73;;;;;;;;;;5028765;28;20037;-58
2021/12/15 13:39:03;;;;;;;46.67;35.50;;;;;;;;;;5030898;28;20052;-53
2021/12/15 13:41:41;;;;;;;39.65;33.13;;;;;;;;;;5030665;28;20049;-54
2021/12/15 13:44:35;;;;;;;46.78;34.45;;;;;;;;;;5026445;28;20067;-56
2021/12/15 13:47:24;;;;;;;37.60;31.25;;;;;;;;;;5008985;28;20053;-54
2021/12/15 13:49:56;;;;;;;39.85;33.65;;;;;;;;;;5030698;28;20407;-53
2021/12/15 13:52:36;;;;;;;44.28;36.28;;;;;;;;;;5030727;28;20125;-53
2021/12/15 13:55:15;;;;;;;43.88;35.70;;;;;;;;;;5035013;28;20060;-52
2021/12/15 13:58:08;;;;;;;56.55;36.47;;;;;;;;;;5034779;28;20044;-50
2021/12/15 14:00:56;;;;;;;45.25;37.40;;;;;;;;;;5025096;28;20041;-52
2021/12/15 14:03:30;;;;;;;51.25;40.15;;;;;;;;;;5033158;28;20464;-53
2021/12/15 14:06:05;;;;;;;47.77;37.27;;;;;;;;;;5034676;28;20108;-51
2021/12/15 14:08:38;;;;;;;52.47;37.28;;;;;;;;;;5034189;28;20041;-51
2021/12/15 14:11:17;;;;;;;52.83;38.50;;;;;;;;;;5034860;28;20511;-54
2021/12/15 14:14:10;;;;;;;42.25;37.53;;;;;;;;;;5031069;28;20057;-56
2021/12/15 14:16:43;;;;;;;43.63;37.97;;;;;;;;;;5018003;28;20055;-57
2021/12/15 14:19:19;;;;;;;46.03;38.47;;;;;;;;;;5034829;28;20484;-58
2021/12/15 14:21:50;;;;;;;44.28;35.30;;;;;;;;;;5035743;28;20045;-57
2021/12/15 14:24:19;;;;;;;47.13;37.13;;;;;;;;;;5035154;28;20053;-58
2021/12/15 14:26:47;;;;;;;49.00;39.13;;;;;;;;;;5034791;28;20041;-57
2021/12/15 14:29:18;;;;;;;52.47;38.20;;;;;;;;;;5034852;28;20099;-57
2021/12/15 14:31:47;;;;;;;50.40;39.67;;;;;;;;;;5035204;28;20522;-56
2021/12/15 14:34:21;;;;;;;48.25;38.08;;;;;;;;;;5034601;28;20124;-56
2021/12/15 14:36:57;;;;;;;55.10;38.92;;;;;;;;;;5035132;28;20046;-53
2021/12/15 14:39:27;;;;;;;53.60;38.90;;;;;;;;;;5032016;28;20450;-54
2021/12/15 14:42:02;;;;;;;48.75;38.55;;;;;;;;;;5033729;28;20041;-55
2021/12/15 14:44:32;;;;;;;52.92;36.88;;;;;;;;;;5032378;28;20042;-56
2021/12/15 14:47:09;;;;;;;51.13;37.63;;;;;;;;;;5034252;28;20037;-54
2021/12/15 14:49:42;;;;;;;45.00;37.28;;;;;;;;;;5012279;28;20038;-55
2021/12/15 14:52:13;;;;;;;44.47;35.00;;;;;;;;;;5033622;28;20042;-57
2021/12/15 14:54:41;;;;;;;52.50;36.55;;;;;;;;;;5034020;28;20041;-54
2021/12/15 14:57:11;;;;;;;51.85;35.75;;;;;;;;;;5033087;28;20124;-55
2021/12/15 14:59:56;;;;;;;51.67;37.80;;;;;;;;;;5030687;28;20060;-57
2021/12/15 15:02:24;;;;;;;;;;;;;;;;;;5031433;28;20049;-57
2021/12/15 15:04:55;;;;;;;37.40;32.80;;;;;;;;;;5032419;28;19925;-58
2021/12/15 15:07:25;;;;;;;44.80;34.33;;;;;;;;;;5031559;28;20042;-57
2021/12/15 15:09:55;;;;;;;49.80;35.72;;;;;;;;;;5026756;28;20060;-59
2021/12/15 15:12:23;;;;;;;43.03;38.33;;;;;;;;;;5028022;28;20476;-59
2021/12/15 15:15:00;;;;;;;49.30;35.92;;;;;;;;;;5031202;28;20543;-58
2021/12/15 15:17:55;;;;;;;43.85;39.15;;;;;;;;;;5031740;28;20050;-58
2021/12/15 15:20:32;;;;;;;45.25;35.75;;;;;;;;;;5028982;28;20092;-59
2021/12/15 15:23:02;;;;;;;54.15;40.22;;;;;;;;;;5031348;28;20045;-57
2021/12/15 15:25:31;;;;;;;44.85;34.72;;;;;;;;;;5032084;28;20045;-58
2021/12/15 15:28:21;;;;;;;53.25;37.22;;;;;;;;;;5025504;28;20061;-58
2021/12/15 15:30:49;;;;;;;47.63;37.75;;;;;;;;;;5023935;28;20523;-58
2021/12/15 15:33:20;;;;;;;45.97;36.53;;;;;;;;;;5025705;28;20057;-56
2021/12/15 15:35:51;;;;;;;44.13;37.50;;;;;;;;;;5028529;28;20550;-57
2021/12/15 15:38:22;;;;;;;41.25;35.83;;;;;;;;;;5031951;28;20072;-56
2021/12/15 15:40:55;;;;;;;58.38;46.47;;;;;;;;;;5029371;28;20695;-56
2021/12/15 15:43:46;;;;;;;48.58;38.65;;;;;;;;;;5025332;28;20033;-53
2021/12/15 15:46:21;;;;;;;44.70;36.35;;;;;;;;;;5028865;28;20049;-58
2021/12/15 15:48:50;;;;;;;43.85;35.83;;;;;;;;;;5029708;28;20099;-58
2021/12/15 15:51:39;;;;;;;40.88;34.45;;;;;;;;;;5024185;28;20514;-58
2021/12/15 15:54:09;;;;;;;51.50;35.92;;;;;;;;;;5030509;28;20135;-58
2021/12/15 15:57:00;;;;;;;51.22;35.15;;;;;;;;;;5028755;28;20426;-57
2021/12/15 15:59:28;;;;;;;42.17;35.97;;;;;;;;;;5025241;28;20046;-58
2021/12/15 16:01:58;;;;;;;43.22;36.95;;;;;;;;;;5029414;28;20072;-56
2021/12/15 16:04:27;;;;;;;45.15;35.42;;;;;;;;;;5031205;28;20122;-57
2021/12/15 16:06:54;;;;;;;42.38;35.00;;;;;;;;;;5028235;28;20408;-57
2021/12/15 16:09:24;;;;;;;42.70;35.58;;;;;;;;;;5028916;28;20048;-58
2021/12/15 16:11:54;;;;;;;48.35;37.22;;;;;;;;;;5031131;28;20056;-57
2021/12/15 16:14:22;;;;;;;44.80;37.15;;;;;;;;;;5022934;28;20041;-57
2021/12/15 16:17:03;;;;;;;53.55;38.97;;;;;;;;;;5028174;28;20045;-56